This is the latest recevied weather packets stored in our database for station/object SQ3RAX-13. If no packets are shown the sender has not sent any weather packets the latest 10 day(s).
| Time | Temp. | Humidity | Pressure | Rain* | Wind** | Luminosity | Snow |
|---|---|---|---|---|---|---|---|
| 1777517700 | 0° C | 77% | 1032 hPa | 0 mm | - | - | - |
| 1777517100 | 0.56° C | 76% | 1032 hPa | 0 mm | - | - | - |
| 1777516500 | 0.56° C | 76% | 1032 hPa | 0 mm | - | - | - |
| 1777515900 | 0° C | 77% | 1031 hPa | 0 mm | - | - | - |
| 1777515300 | 0.56° C | 75% | 1031 hPa | 0 mm | - | - | - |
| 1777514700 | 0.56° C | 75% | 1031 hPa | 0 mm | - | - | - |
| 1777514100 | 0.56° C | 75% | 1031 hPa | 0 mm | - | - | - |
| 1777513500 | 0.56° C | 75% | 1031 hPa | 0 mm | - | - | - |
| 1777512900 | 0° C | 77% | 1031 hPa | 0 mm | - | - | - |
| 1777512300 | 0° C | 77% | 1031 hPa | 0 mm | - | - | - |
| 1777511700 | 0.56° C | 76% | 1031 hPa | 0 mm | - | - | - |
| 1777511100 | 1.11° C | 71% | 1032 hPa | 0 mm | - | - | - |
| 1777510500 | 1.11° C | 71% | 1032 hPa | 0 mm | - | - | - |
| 1777509900 | 1.11° C | 71% | 1032 hPa | 0 mm | - | - | - |
| 1777509300 | 1.11° C | 71% | 1032 hPa | 0 mm | - | - | - |
| 1777508700 | 1.11° C | 75% | 1031 hPa | 0 mm | - | - | - |
| 1777508100 | 1.11° C | 76% | 1031 hPa | 0 mm | - | - | - |
| 1777507500 | 1.67° C | 71% | 1032 hPa | 0 mm | - | - | - |
| 1777506900 | 1.67° C | 71% | 1032 hPa | 0 mm | - | - | - |
| 1777506300 | 1.67° C | 71% | 1032 hPa | 0 mm | - | - | - |
| 1777505700 | 1.67° C | 71% | 1032 hPa | 0 mm | - | - | - |
| 1777505100 | 1.67° C | 74% | 1031 hPa | 0 mm | - | - | - |
| 1777504500 | 2.22° C | 70% | 1032 hPa | 0 mm | - | - | - |
| 1777503900 | 2.22° C | 70% | 1032 hPa | 0 mm | - | - | - |
| 1777503300 | 2.22° C | 70% | 1032 hPa | 0 mm | - | - | - |
* Rain latest hour (hover to see other rain measurements)
** Current wind speed in m/s (hover to see current wind gust speed)